Time;durP1;ratioP1;P1;durP2;ratioP2;P2;SDS_P1;SDS_P2;PMS_P1;PMS_P2;Temp;Humidity;BMP_temperature;BMP_pressure;BME280_temperature;BME280_humidity;BME280_pressure;Samples;Min_cycle;Max_cycle;Signal;HPM_P1;HPM_P2
2023/05/12 00:02:07;;;;;;;0.10;0.10;;;;;;;15.55;72.22;101817.13;5125740;27;20140;-81
2023/05/12 00:04:34;;;;;;;0.10;0.10;;;;;;;15.53;71.86;101817.19;5123735;27;20065;-81
2023/05/12 00:07:00;;;;;;;0.20;0.20;;;;;;;15.49;72.06;101813.72;5122089;28;20038;-80
2023/05/12 00:09:26;;;;;;;0.57;0.57;;;;;;;15.44;72.25;101815.63;5117399;28;20489;-81
2023/05/12 00:11:53;;;;;;;0.20;0.20;;;;;;;15.42;72.15;101824.59;5122657;28;20141;-80
2023/05/12 00:14:19;;;;;;;0.20;0.20;;;;;;;15.38;72.30;101818.44;5124379;28;20038;-81
2023/05/12 00:16:50;;;;;;;0.10;0.10;;;;;;;15.37;72.21;101814.00;5123942;28;20390;-81
2023/05/12 00:19:17;;;;;;;0.10;0.10;;;;;;;15.33;71.91;101815.00;5122926;28;20029;-80
2023/05/12 00:21:43;;;;;;;0.10;0.10;;;;;;;15.30;72.05;101815.97;5126633;28;20020;-80
2023/05/12 00:24:09;;;;;;;0.10;0.10;;;;;;;15.25;71.85;101807.16;5130214;28;20549;-80
2023/05/12 00:26:35;;;;;;;0.10;0.10;;;;;;;15.19;72.17;101802.00;5132566;28;20050;-80
2023/05/12 00:29:01;;;;;;;0.20;0.20;;;;;;;15.17;72.07;101810.03;5127696;28;20049;-81
2023/05/12 00:31:29;;;;;;;0.10;0.10;;;;;;;15.16;72.10;101802.06;5130114;28;20027;-81
2023/05/12 00:33:55;;;;;;;0.10;0.10;;;;;;;15.15;72.18;101806.53;5134670;27;20026;-79
2023/05/12 00:36:21;;;;;;;0.10;0.10;;;;;;;15.12;72.21;101803.94;5128630;28;20046;-80
2023/05/12 00:38:48;;;;;;;0.10;0.10;;;;;;;15.10;72.37;101803.06;5121494;28;20027;-80
2023/05/12 00:41:14;;;;;;;0.35;0.35;;;;;;;15.07;72.11;101797.81;5125785;28;20031;-81
2023/05/12 00:43:40;;;;;;;0.10;0.10;;;;;;;15.04;72.33;101808.56;5121329;28;20113;-81
2023/05/12 00:46:06;;;;;;;0.13;0.13;;;;;;;15.04;72.18;101801.44;5127015;28;20061;-81
2023/05/12 00:48:33;;;;;;;0.10;0.10;;;;;;;15.03;72.23;101806.81;5126062;28;20290;-82
2023/05/12 00:51:01;;;;;;;0.75;0.75;;;;;;;15.01;72.51;101803.31;5131138;27;20027;-80
2023/05/12 00:53:28;;;;;;;0.10;0.10;;;;;;;15.00;72.37;101798.88;5128986;27;20019;-81
2023/05/12 00:55:56;;;;;;;0.10;0.10;;;;;;;14.97;72.25;101807.81;5126670;28;20031;-81
2023/05/12 00:58:23;;;;;;;0.10;0.10;;;;;;;14.95;72.34;101800.78;5124927;27;20031;-81
2023/05/12 01:00:49;;;;;;;0.10;0.10;;;;;;;14.93;72.26;101805.25;5124504;28;20058;-81
2023/05/12 01:03:16;;;;;;;0.10;0.10;;;;;;;14.91;72.14;101812.44;5123184;28;20055;-79
2023/05/12 01:05:49;;;;;;;0.40;0.40;;;;;;;14.87;72.35;101796.47;5122091;28;20487;-82
2023/05/12 01:08:16;;;;;;;2.40;0.52;;;;;;;14.81;72.41;101798.44;5122980;28;20034;-80
2023/05/12 01:10:43;;;;;;;0.10;0.10;;;;;;;14.80;72.51;101792.19;5123648;28;20159;-81
2023/05/12 01:13:10;;;;;;;0.10;0.10;;;;;;;14.79;72.29;101795.78;5124543;27;20490;-80
2023/05/12 01:15:39;;;;;;;0.10;0.10;;;;;;;14.78;72.45;101793.13;5139008;27;20084;-81
2023/05/12 01:18:07;;;;;;;0.00;0.00;;;;;;;14.76;72.35;101790.50;5133421;27;20027;-80
2023/05/12 01:20:34;;;;;;;0.10;0.10;;;;;;;14.74;72.73;101789.66;5128330;27;20043;-80
2023/05/12 01:23:02;;;;;;;0.10;0.10;;;;;;;14.71;72.54;101784.41;5144289;27;20482;-80
2023/05/12 01:25:31;;;;;;;0.30;0.30;;;;;;;14.68;72.41;101787.16;5143708;27;20027;-81
2023/05/12 01:27:58;;;;;;;0.40;0.40;;;;;;;14.65;72.56;101795.22;5132115;27;20034;-81
2023/05/12 01:30:24;;;;;;;0.45;0.45;;;;;;;14.63;72.64;101787.22;5131073;27;20597;-80
2023/05/12 01:32:51;;;;;;;0.10;0.10;;;;;;;14.63;72.58;101786.31;5124389;27;20551;-81
2023/05/12 01:35:18;;;;;;;0.10;0.10;;;;;;;14.61;72.79;101782.84;5124634;27;20035;-81
2023/05/12 01:37:45;;;;;;;0.85;0.85;;;;;;;14.60;72.76;101789.06;5127350;27;20076;-81
2023/05/12 01:40:11;;;;;;;0.10;0.10;;;;;;;14.56;72.61;101777.59;5126031;27;20107;-81
2023/05/12 01:42:40;;;;;;;0.47;0.47;;;;;;;14.55;72.60;101778.50;5125325;27;20032;-81
2023/05/12 01:45:07;;;;;;;0.17;0.17;;;;;;;14.54;72.75;101784.72;5127692;27;20035;-82
2023/05/12 01:47:33;;;;;;;0.10;0.10;;;;;;;14.51;72.47;101788.34;5132979;27;20043;-81
2023/05/12 01:49:59;;;;;;;0.68;0.68;;;;;;;14.50;72.78;101785.72;5129843;27;20038;-81
2023/05/12 01:52:25;;;;;;;0.30;0.30;;;;;;;14.47;72.39;101780.47;5122923;27;20028;-82
2023/05/12 01:54:51;;;;;;;0.40;0.40;;;;;;;14.45;72.50;101793.81;5125610;27;20027;-81
2023/05/12 01:57:17;;;;;;;0.10;0.10;;;;;;;14.43;72.59;101792.97;5132194;27;20023;-81
2023/05/12 01:59:44;;;;;;;3.20;2.08;;;;;;;14.41;72.59;101797.47;5124627;27;20031;-81
2023/05/12 02:02:11;;;;;;;0.10;0.10;;;;;;;14.38;72.60;101793.06;5126645;27;20110;-80
2023/05/12 02:04:37;;;;;;;0.10;0.10;;;;;;;14.37;72.78;101790.44;5119997;27;20092;-81
2023/05/12 02:07:03;;;;;;;0.10;0.10;;;;;;;14.33;72.88;101789.63;5123092;27;20050;-81
2023/05/12 02:09:29;;;;;;;0.10;0.10;;;;;;;14.31;72.66;101786.09;5125504;27;20031;-81
2023/05/12 02:11:56;;;;;;;0.10;0.10;;;;;;;14.29;72.59;101784.38;5122071;27;20599;-81
2023/05/12 02:14:22;;;;;;;0.10;0.10;;;;;;;14.25;72.85;101786.22;5126393;27;20023;-82
2023/05/12 02:16:51;;;;;;;0.10;0.10;;;;;;;14.24;72.82;101784.47;5126642;27;20084;-80
2023/05/12 02:19:19;;;;;;;0.10;0.10;;;;;;;14.22;72.91;101775.66;5121921;27;20106;-80
2023/05/12 02:21:46;;;;;;;0.10;0.10;;;;;;;14.21;72.94;101780.06;5123705;27;20024;-81
2023/05/12 02:24:12;;;;;;;0.10;0.10;;;;;;;14.21;73.12;101780.06;5125299;27;20031;-80
2023/05/12 02:26:38;;;;;;;0.10;0.10;;;;;;;14.20;73.00;101770.31;5122654;27;20027;-80
2023/05/12 02:29:04;;;;;;;0.10;0.10;;;;;;;14.19;72.77;101778.34;5126304;27;20050;-80
2023/05/12 02:31:30;;;;;;;0.10;0.10;;;;;;;14.18;72.83;101773.94;5124403;27;20419;-81
2023/05/12 02:33:57;;;;;;;0.10;0.10;;;;;;;14.14;73.09;101767.78;5119398;27;20032;-79
2023/05/12 02:36:23;;;;;;;0.15;0.15;;;;;;;14.08;73.33;101768.78;5122160;27;20031;-80
2023/05/12 02:38:50;;;;;;;0.10;0.10;;;;;;;14.07;73.05;101761.69;5131077;27;20057;-80
2023/05/12 02:41:16;;;;;;;0.10;0.10;;;;;;;14.08;72.90;101767.91;5121167;27;20027;-80
2023/05/12 02:43:42;;;;;;;0.20;0.20;;;;;;;14.08;73.08;101770.56;5127386;27;20548;-80
2023/05/12 02:46:08;;;;;;;0.10;0.10;;;;;;;14.09;73.39;101759.00;5118281;27;20116;-81
2023/05/12 02:48:34;;;;;;;0.10;0.10;;;;;;;14.11;73.32;101762.53;5124042;27;20575;-80
2023/05/12 02:51:00;;;;;;;0.10;0.10;;;;;;;14.12;73.45;101753.63;5130233;27;20054;-79
2023/05/12 02:53:27;;;;;;;0.10;0.10;;;;;;;14.11;73.26;101762.53;5125750;27;20076;-80
2023/05/12 02:55:53;;;;;;;0.10;0.10;;;;;;;14.09;73.66;101759.00;5116303;27;20058;-81
2023/05/12 02:58:19;;;;;;;0.10;0.10;;;;;;;14.08;73.51;101757.25;5121507;27;20382;-82
2023/05/12 03:00:45;;;;;;;0.10;0.10;;;;;;;14.08;73.53;101754.56;5119727;27;20027;-81
2023/05/12 03:03:11;;;;;;;0.10;0.10;;;;;;;14.10;73.25;101750.09;5124513;27;20065;-81
2023/05/12 03:05:37;;;;;;;0.10;0.10;;;;;;;14.11;73.51;101749.19;5127793;27;20028;-81
2023/05/12 03:08:04;;;;;;;0.20;0.20;;;;;;;14.12;73.53;101747.41;5126002;27;20027;-81
2023/05/12 03:10:30;;;;;;;0.20;0.20;;;;;;;14.13;73.46;101755.38;5128748;27;20046;-81
2023/05/12 03:12:56;;;;;;;0.10;0.10;;;;;;;14.13;73.63;101749.16;5123327;27;20038;-81
2023/05/12 03:15:22;;;;;;;0.10;0.10;;;;;;;14.10;73.51;101742.09;5126911;27;20031;-80
2023/05/12 03:17:48;;;;;;;2.50;0.75;;;;;;;14.08;73.81;101743.91;5119280;27;20054;-80
2023/05/12 03:20:14;;;;;;;0.10;0.10;;;;;;;14.07;73.63;101743.06;5123229;27;20046;-80
2023/05/12 03:22:41;;;;;;;0.10;0.10;;;;;;;14.05;73.74;101736.00;5122126;27;20024;-81
2023/05/12 03:25:09;;;;;;;0.38;0.38;;;;;;;14.06;73.86;101743.09;5131791;27;20031;-82
2023/05/12 03:27:35;;;;;;;0.10;0.10;;;;;;;14.02;74.13;101739.59;5120631;27;20081;-81
2023/05/12 03:30:03;;;;;;;0.10;0.10;;;;;;;14.04;73.83;101736.91;5129169;27;20020;-81
2023/05/12 03:32:29;;;;;;;0.10;0.10;;;;;;;14.05;74.35;101736.00;5129410;27;20558;-81
2023/05/12 03:34:56;;;;;;;0.10;0.10;;;;;;;14.05;74.35;101728.00;5134499;27;20023;-81
2023/05/12 03:37:22;;;;;;;0.20;0.20;;;;;;;14.05;74.36;101725.34;5124595;27;20561;-81
2023/05/12 03:39:48;;;;;;;0.10;0.10;;;;;;;14.08;73.96;101727.94;5123288;27;20478;-81
2023/05/12 03:42:14;;;;;;;0.10;0.10;;;;;;;14.08;74.23;101722.59;5127118;27;20059;-81
2023/05/12 03:44:42;;;;;;;0.10;0.10;;;;;;;14.10;74.54;101718.13;5133286;27;20549;-81
2023/05/12 03:47:08;;;;;;;0.10;0.10;;;;;;;14.12;74.19;101721.66;5132282;27;20037;-81
2023/05/12 03:49:34;;;;;;;0.55;0.55;;;;;;;14.13;74.33;101714.50;5130951;27;20028;-82
2023/05/12 03:52:00;;;;;;;0.20;0.20;;;;;;;14.12;74.48;101718.97;5134994;27;20041;-81
2023/05/12 03:54:26;;;;;;;1.98;1.42;;;;;;;14.14;74.34;101722.47;5131188;27;20035;-82
2023/05/12 03:56:52;;;;;;;0.10;0.10;;;;;;;14.16;74.64;101723.31;5124237;27;20032;-80
2023/05/12 03:59:19;;;;;;;0.10;0.10;;;;;;;14.18;74.61;101716.19;5129724;27;20481;-82
2023/05/12 04:01:45;;;;;;;0.10;0.10;;;;;;;14.21;74.41;101715.25;5126403;28;20027;-82
2023/05/12 04:04:11;;;;;;;0.43;0.43;;;;;;;14.20;74.57;101714.34;5133665;27;20064;-82
2023/05/12 04:06:37;;;;;;;0.10;0.10;;;;;;;14.18;74.52;101718.84;5130374;27;20035;-81
2023/05/12 04:09:03;;;;;;;0.30;0.30;;;;;;;14.21;74.69;101724.09;5129460;28;20019;-82
2023/05/12 04:11:29;;;;;;;0.20;0.20;;;;;;;14.21;74.51;101710.78;5124995;28;20023;-81
2023/05/12 04:13:55;;;;;;;0.10;0.10;;;;;;;14.21;74.95;101720.56;5121231;28;20019;-79
2023/05/12 04:16:21;;;;;;;0.20;0.20;;;;;;;14.23;74.75;101716.97;5136643;28;20027;-80
2023/05/12 04:18:48;;;;;;;0.30;0.30;;;;;;;14.26;74.75;101720.47;5123324;28;20031;-81
2023/05/12 04:21:14;;;;;;;0.10;0.10;;;;;;;14.31;74.54;101713.25;5127089;28;20048;-81
2023/05/12 04:23:40;;;;;;;0.40;0.40;;;;;;;14.29;75.10;101718.59;5120522;28;20105;-82
2023/05/12 04:26:06;;;;;;;0.10;0.10;;;;;;;14.32;74.97;101717.69;5120855;28;20034;-82
2023/05/12 04:28:32;;;;;;;0.10;0.10;;;;;;;14.35;74.68;101712.28;5116435;28;20426;-80
2023/05/12 04:31:03;;;;;;;0.10;0.10;;;;;;;14.39;75.02;101725.50;5112857;28;20023;-80
2023/05/12 04:33:29;;;;;;;0.38;0.38;;;;;;;14.38;74.80;101722.84;5117503;28;20069;-80
2023/05/12 04:35:56;;;;;;;0.10;0.10;;;;;;;14.41;74.71;101717.47;5121982;28;20019;-81
2023/05/12 04:38:22;;;;;;;0.10;0.10;;;;;;;14.30;75.44;101714.16;5118893;27;20059;-80
2023/05/12 04:40:48;;;;;;;0.10;0.10;;;;;;;14.31;75.50;101711.47;5114723;28;20043;-80
2023/05/12 04:43:14;;;;;;;0.10;0.10;;;;;;;14.39;75.38;101713.94;5121189;28;20031;-80
2023/05/12 04:45:40;;;;;;;0.10;0.10;;;;;;;14.44;75.41;101712.06;5118486;28;20401;-80
2023/05/12 04:48:06;;;;;;;0.40;0.40;;;;;;;14.46;74.96;101718.25;5126649;27;20069;-80
2023/05/12 04:50:32;;;;;;;0.30;0.30;;;;;;;14.49;75.11;101720.84;5122994;27;20031;-80
2023/05/12 04:52:58;;;;;;;0.10;0.10;;;;;;;14.52;75.28;101720.78;5131552;27;20050;-80
2023/05/12 04:55:25;;;;;;;0.10;0.10;;;;;;;14.56;75.18;101721.59;5125273;27;20061;-80
2023/05/12 04:57:51;;;;;;;0.10;0.10;;;;;;;14.60;75.13;101722.41;5130919;27;20042;-81
2023/05/12 05:00:17;;;;;;;0.10;0.10;;;;;;;14.64;75.18;101732.06;5140132;27;20032;-80
2023/05/12 05:02:43;;;;;;;1.95;0.65;;;;;;;14.68;75.13;101731.16;5126035;27;20045;-79
2023/05/12 05:05:09;;;;;;;0.13;0.13;;;;;;;14.72;75.16;101732.81;5120744;27;20027;-79
2023/05/12 05:07:36;;;;;;;0.00;0.00;;;;;;;14.76;75.19;101738.97;5122018;27;20031;-80
2023/05/12 05:10:02;;;;;;;0.10;0.10;;;;;;;14.78;74.98;101737.13;5125881;27;20494;-81
2023/05/12 05:12:28;;;;;;;0.10;0.10;;;;;;;14.80;75.15;101756.66;5127400;27;20457;-81
2023/05/12 05:14:54;;;;;;;0.10;0.10;;;;;;;14.82;75.02;101745.03;5124067;27;20049;-81
2023/05/12 05:17:21;;;;;;;0.55;0.55;;;;;;;14.85;75.12;101752.06;5127149;27;20042;-81
2023/05/12 05:19:48;;;;;;;0.00;0.00;;;;;;;14.87;75.18;101748.47;5123913;27;20055;-79
2023/05/12 05:22:14;;;;;;;0.10;0.10;;;;;;;14.92;75.19;101759.03;5123832;27;20027;-79
2023/05/12 05:24:40;;;;;;;0.10;0.10;;;;;;;14.95;75.41;101752.75;5128558;27;20012;-80
2023/05/12 05:27:07;;;;;;;0.00;0.00;;;;;;;14.98;75.04;101760.69;5130196;27;20031;-81
2023/05/12 05:29:33;;;;;;;0.20;0.20;;;;;;;14.99;75.27;101759.75;5138124;27;20039;-81
2023/05/12 05:31:59;;;;;;;0.82;0.82;;;;;;;14.98;75.32;101766.03;5138825;27;20054;-81
2023/05/12 05:34:25;;;;;;;0.10;0.10;;;;;;;15.00;75.20;101764.19;5125116;27;20099;-80
2023/05/12 05:36:51;;;;;;;0.10;0.10;;;;;;;15.02;75.29;101763.22;5125172;27;20034;-80
2023/05/12 05:39:17;;;;;;;0.10;0.10;;;;;;;15.07;75.25;101772.94;5130367;27;20080;-81
2023/05/12 05:41:43;;;;;;;0.10;0.10;;;;;;;15.10;75.34;101771.03;5127110;27;20080;-79
2023/05/12 05:44:09;;;;;;;0.10;0.10;;;;;;;15.12;75.12;101769.22;5130580;27;20023;-79
2023/05/12 05:46:35;;;;;;;0.15;0.15;;;;;;;15.14;75.33;101771.84;5122430;27;20086;-80
2023/05/12 05:49:01;;;;;;;0.25;0.25;;;;;;;15.14;75.46;101767.41;5120720;27;20070;-79
2023/05/12 05:51:27;;;;;;;0.30;0.30;;;;;;;15.22;75.26;101772.56;5124190;27;20452;-81
2023/05/12 05:53:53;;;;;;;0.10;0.10;;;;;;;15.26;75.55;101778.69;5126683;27;20031;-80
2023/05/12 05:56:21;;;;;;;0.20;0.20;;;;;;;15.27;75.31;101777.78;5121694;27;20115;-80
2023/05/12 05:58:47;;;;;;;0.43;0.43;;;;;;;15.16;75.84;101780.72;5131324;27;20027;-80
2023/05/12 06:01:14;;;;;;;0.32;0.32;;;;;;;15.17;75.62;101788.66;5127621;27;20440;-81
2023/05/12 06:03:40;;;;;;;0.20;0.20;;;;;;;15.18;75.93;101784.22;5133273;27;20030;-80
2023/05/12 06:06:07;;;;;;;0.45;0.45;;;;;;;15.20;75.89;101785.94;5120716;27;20050;-80
2023/05/12 06:08:33;;;;;;;2.28;1.05;;;;;;;15.26;76.15;101781.38;5135880;27;20439;-79
2023/05/12 06:10:59;;;;;;;0.43;0.43;;;;;;;15.42;75.49;101789.88;5131693;27;20040;-81
2023/05/12 06:13:25;;;;;;;0.57;0.57;;;;;;;15.47;75.37;101778.16;5129820;27;20037;-82
2023/05/12 06:15:51;;;;;;;0.38;0.38;;;;;;;15.56;75.59;101785.03;5129586;27;20042;-80
2023/05/12 06:18:17;;;;;;;0.20;0.20;;;;;;;15.63;75.36;101785.78;5130707;27;20043;-84
2023/05/12 06:20:43;;;;;;;0.10;0.10;;;;;;;15.69;75.50;101783.81;5127771;27;20031;-81
2023/05/12 06:23:09;;;;;;;0.30;0.30;;;;;;;15.74;75.20;101786.38;5131134;27;20097;-81
2023/05/12 06:25:35;;;;;;;0.10;0.10;;;;;;;15.79;75.57;101792.47;5120832;27;20028;-81
2023/05/12 06:28:02;;;;;;;1.17;0.98;;;;;;;15.84;75.33;101790.56;5130899;27;20028;-82
2023/05/12 06:30:28;;;;;;;0.10;0.10;;;;;;;15.90;75.30;101784.19;5128246;27;20069;-81
2023/05/12 06:32:54;;;;;;;0.20;0.20;;;;;;;15.95;75.34;101789.41;5127745;27;20027;-81
2023/05/12 06:35:20;;;;;;;0.10;0.10;;;;;;;15.94;75.48;101787.66;5135266;27;20015;-80
2023/05/12 06:37:49;;;;;;;0.20;0.20;;;;;;;16.05;75.56;101792.69;5129040;27;20434;-81
2023/05/12 06:40:16;;;;;;;0.10;0.10;;;;;;;16.12;75.39;101799.63;5137430;27;20554;-81
2023/05/12 06:42:42;;;;;;;0.35;0.35;;;;;;;16.17;75.27;101805.72;5126387;27;20041;-82
2023/05/12 06:45:11;;;;;;;0.25;0.25;;;;;;;16.17;75.45;101801.28;5123321;27;20024;-81
2023/05/12 06:47:37;;;;;;;0.10;0.10;;;;;;;16.15;75.21;101800.44;5126704;27;20025;-82
2023/05/12 06:50:04;;;;;;;0.77;0.77;;;;;;;16.10;74.73;101802.34;5128106;27;20042;-82
2023/05/12 06:52:30;;;;;;;0.28;0.28;;;;;;;16.07;74.78;101813.13;5128196;27;20057;-82
2023/05/12 06:54:56;;;;;;;0.20;0.20;;;;;;;16.08;74.86;101814.00;5131907;27;20030;-82
2023/05/12 06:57:22;;;;;;;0.63;0.63;;;;;;;16.10;75.00;101817.50;5126870;27;20026;-83
2023/05/12 06:59:48;;;;;;;0.15;0.15;;;;;;;16.10;75.14;101812.16;5118393;27;20062;-81
2023/05/12 07:02:15;;;;;;;0.30;0.30;;;;;;;16.13;75.14;101812.94;5128840;27;20035;-81
2023/05/12 07:04:41;;;;;;;0.20;0.20;;;;;;;16.22;74.85;101816.28;5120160;27;20015;-81
2023/05/12 07:07:07;;;;;;;0.10;0.10;;;;;;;16.30;75.34;101814.28;5128418;27;20028;-81
2023/05/12 07:09:33;;;;;;;0.10;0.10;;;;;;;16.39;74.88;101824.72;5127564;27;20051;-79
2023/05/12 07:12:00;;;;;;;0.63;0.63;;;;;;;16.45;75.05;101818.31;5137896;27;20031;-79
2023/05/12 07:14:26;;;;;;;0.10;0.10;;;;;;;16.53;75.11;101821.63;5135730;27;20076;-80
2023/05/12 07:16:52;;;;;;;0.10;0.10;;;;;;;16.62;74.87;101823.16;5128559;27;20019;-81
2023/05/12 07:19:18;;;;;;;0.00;0.00;;;;;;;16.71;74.82;101830.94;5119235;27;20029;-82
2023/05/12 07:21:44;;;;;;;0.20;0.20;;;;;;;16.80;75.21;101829.78;5128265;27;20407;-80
2023/05/12 07:24:10;;;;;;;0.88;0.75;;;;;;;16.91;74.78;101825.00;5120529;27;20106;-80
2023/05/12 07:26:36;;;;;;;0.20;0.20;;;;;;;17.07;74.82;101828.06;5123013;27;20024;-81
2023/05/12 07:29:04;;;;;;;0.10;0.10;;;;;;;17.18;74.83;101826.84;5119367;27;20030;-81
2023/05/12 07:31:30;;;;;;;0.10;0.10;;;;;;;17.30;74.65;101827.31;5124879;27;20062;-81
2023/05/12 07:33:56;;;;;;;0.35;0.35;;;;;;;17.39;74.54;101828.81;5116466;28;20024;-81
2023/05/12 07:36:22;;;;;;;0.00;0.00;;;;;;;17.50;74.62;101830.28;5129211;27;20478;-81
2023/05/12 07:38:48;;;;;;;0.20;0.20;;;;;;;17.56;74.76;101835.44;5122563;27;20031;-81
2023/05/12 07:41:14;;;;;;;2.28;1.30;;;;;;;17.62;74.06;101830.75;5124260;27;20029;-79
2023/05/12 07:43:40;;;;;;;0.43;0.43;;;;;;;17.73;74.18;101826.81;5121601;27;20481;-81
2023/05/12 07:46:06;;;;;;;1.30;1.27;;;;;;;17.74;74.48;101836.59;5123639;27;20066;-82
2023/05/12 07:48:38;;;;;;;0.10;0.10;;;;;;;17.79;74.67;101831.97;5121764;27;20053;-80
2023/05/12 07:51:05;;;;;;;0.45;0.45;;;;;;;17.84;74.15;101819.28;5130264;27;20023;-81
2023/05/12 07:53:32;;;;;;;0.25;0.25;;;;;;;17.87;74.19;101823.66;5120335;27;20053;-80
2023/05/12 07:55:58;;;;;;;0.68;0.68;;;;;;;17.92;73.85;101821.72;5123520;27;20024;-81
2023/05/12 07:58:24;;;;;;;0.10;0.10;;;;;;;17.99;73.62;101827.75;5129416;27;20376;-80
2023/05/12 08:00:50;;;;;;;0.30;0.30;;;;;;;18.09;73.83;101835.41;5129207;27;20112;-80
2023/05/12 08:03:16;;;;;;;0.25;0.25;;;;;;;18.11;72.48;101832.69;5125326;27;20035;-80
2023/05/12 08:05:42;;;;;;;0.68;0.68;;;;;;;18.20;72.77;101839.50;5131806;27;20020;-81
2023/05/12 08:08:15;;;;;;;0.30;0.30;;;;;;;18.26;73.37;101841.97;5128130;27;20062;-81
2023/05/12 08:10:41;;;;;;;0.32;0.32;;;;;;;18.35;73.47;101846.13;5120468;28;20023;-81
2023/05/12 08:13:11;;;;;;;0.13;0.13;;;;;;;18.48;73.40;101847.44;5117120;28;20054;-81
2023/05/12 08:15:37;;;;;;;0.10;0.10;;;;;;;18.57;73.34;101855.13;5128215;28;20024;-81
2023/05/12 08:18:03;;;;;;;0.25;0.25;;;;;;;18.68;73.32;101853.84;5127828;28;20402;-81
2023/05/12 08:20:31;;;;;;;0.10;0.10;;;;;;;18.77;73.01;101858.88;5122740;28;20043;-81
2023/05/12 08:22:57;;;;;;;0.10;0.10;;;;;;;18.86;73.36;101852.25;5126239;27;20068;-80
2023/05/12 08:25:23;;;;;;;0.77;0.77;;;;;;;18.89;72.78;101852.13;5140497;27;20042;-81
2023/05/12 08:27:49;;;;;;;0.35;0.35;;;;;;;18.93;72.77;101848.44;5142269;27;20054;-81
2023/05/12 08:30:16;;;;;;;0.10;0.10;;;;;;;18.95;72.48;101851.94;5123725;27;20381;-81
2023/05/12 08:32:42;;;;;;;1.58;1.38;;;;;;;19.03;71.76;101855.19;5124841;27;20027;-81
2023/05/12 08:35:08;;;;;;;1.20;0.68;;;;;;;19.13;71.35;101854.81;5130583;27;20028;-81
2023/05/12 08:37:34;;;;;;;0.55;0.52;;;;;;;19.13;70.25;101862.88;5125817;27;20169;-81
2023/05/12 08:40:01;;;;;;;0.75;0.75;;;;;;;19.12;70.23;101858.47;5124687;27;20031;-81
2023/05/12 08:42:36;;;;;;;2.08;1.27;;;;;;;19.14;70.22;101856.56;5130589;27;20100;-81
2023/05/12 08:45:03;;;;;;;0.60;0.60;;;;;;;19.17;70.15;101867.22;5126781;27;20043;-81
2023/05/12 08:47:32;;;;;;;0.55;0.55;;;;;;;19.26;70.93;101860.59;5135401;27;20044;-81
2023/05/12 08:49:59;;;;;;;0.10;0.10;;;;;;;19.34;71.14;101864.72;5127272;27;20028;-81
2023/05/12 08:52:28;;;;;;;0.10;0.10;;;;;;;19.43;70.85;101865.25;5125882;27;20027;-80
2023/05/12 08:54:55;;;;;;;0.32;0.32;;;;;;;19.48;70.40;101865.97;5131086;27;20032;-81
2023/05/12 08:57:23;;;;;;;0.95;0.95;;;;;;;19.54;70.65;101866.59;5125634;27;20024;-81
2023/05/12 08:59:52;;;;;;;0.10;0.10;;;;;;;19.56;70.47;101864.72;5117572;27;20393;-81
2023/05/12 09:02:19;;;;;;;0.10;0.10;;;;;;;19.60;70.05;101860.09;5134693;27;20019;-81
2023/05/12 09:04:47;;;;;;;0.10;0.10;;;;;;;19.64;70.28;101864.38;5129611;27;20056;-81
2023/05/12 09:07:13;;;;;;;0.13;0.13;;;;;;;19.72;70.60;101864.91;5129405;27;20050;-81
2023/05/12 09:09:43;;;;;;;0.93;0.40;;;;;;;19.79;69.78;101860.19;5120698;27;20053;-81
2023/05/12 09:12:14;;;;;;;1.17;1.08;;;;;;;19.88;70.13;101857.13;5125692;27;20027;-81
2023/05/12 09:14:43;;;;;;;0.35;0.35;;;;;;;19.94;69.58;101857.78;5140479;27;20023;-81
2023/05/12 09:17:11;;;;;;;0.65;0.65;;;;;;;20.07;69.93;101867.06;5134416;27;20034;-81
2023/05/12 09:19:37;;;;;;;0.10;0.10;;;;;;;20.15;69.33;101856.88;5125701;27;20015;-81
2023/05/12 09:22:03;;;;;;;0.35;0.35;;;;;;;20.23;68.79;101863.72;5135861;27;20552;-81
2023/05/12 09:24:38;;;;;;;1.48;1.38;;;;;;;20.33;68.30;101871.28;5130947;27;20565;-81
2023/05/12 09:27:04;;;;;;;0.20;0.20;;;;;;;20.32;68.77;101864.16;5137528;27;20545;-81
2023/05/12 09:29:32;;;;;;;0.47;0.47;;;;;;;20.38;69.16;101863.03;5133795;27;20031;-82
2023/05/12 09:32:00;;;;;;;0.10;0.10;;;;;;;20.44;68.78;101869.97;5138255;27;20026;-79
2023/05/12 09:34:30;;;;;;;0.90;0.68;;;;;;;20.52;68.86;101865.09;5124036;27;20027;-81
2023/05/12 09:36:58;;;;;;;0.63;0.63;;;;;;;20.59;69.07;101868.38;5122138;27;20504;-81
2023/05/12 09:39:24;;;;;;;0.10;0.10;;;;;;;20.65;68.46;101866.28;5129221;27;20083;-80
2023/05/12 09:41:51;;;;;;;0.63;0.63;;;;;;;20.73;67.63;101874.03;5127494;27;20023;-81
2023/05/12 09:44:18;;;;;;;0.30;0.30;;;;;;;20.77;67.47;101866.69;5128113;27;20031;-81
2023/05/12 09:46:45;;;;;;;0.30;0.30;;;;;;;20.78;66.86;101871.13;5130021;27;20652;-81
2023/05/12 09:49:11;;;;;;;0.10;0.10;;;;;;;20.81;67.70;101870.97;5130080;27;20023;-81
2023/05/12 09:51:39;;;;;;;1.10;1.00;;;;;;;20.84;67.17;101873.53;5133198;27;20027;-81
2023/05/12 09:54:05;;;;;;;0.10;0.10;;;;;;;20.92;66.62;101876.75;5139808;27;20030;-81
2023/05/12 09:56:34;;;;;;;1.05;1.00;;;;;;;21.02;66.56;101874.47;5130210;27;20027;-81
2023/05/12 09:59:03;;;;;;;0.80;0.75;;;;;;;21.09;66.52;101880.44;5120924;27;20398;-81
2023/05/12 10:01:30;;;;;;;0.10;0.10;;;;;;;21.16;66.56;101881.91;5130744;27;20019;-81
2023/05/12 10:03:57;;;;;;;0.10;0.10;;;;;;;21.26;67.12;101877.81;5150422;27;20023;-80
2023/05/12 10:06:36;;;;;;;0.57;0.57;;;;;;;21.35;66.93;101876.50;5143738;27;20053;-81
2023/05/12 10:09:24;;;;;;;0.50;0.50;;;;;;;21.39;65.67;101877.22;5132104;27;20073;-81
2023/05/12 10:11:51;;;;;;;0.93;0.93;;;;;;;21.34;66.30;101881.00;5127509;27;20027;-81
2023/05/12 10:14:18;;;;;;;0.10;0.10;;;;;;;21.43;65.90;101881.50;5127860;27;20557;-81
2023/05/12 10:16:46;;;;;;;0.10;0.10;;;;;;;21.57;66.28;101879.03;5119114;27;20032;-81
2023/05/12 10:19:13;;;;;;;0.05;0.05;;;;;;;21.71;65.18;101866.66;5139394;27;20046;-81
2023/05/12 10:21:45;;;;;;;0.00;0.00;;;;;;;21.90;65.36;101872.84;5129842;27;20024;-81
2023/05/12 10:24:15;;;;;;;0.10;0.10;;;;;;;22.07;64.55;101874.69;5119877;27;20043;-81
2023/05/12 10:26:43;;;;;;;0.10;0.10;;;;;;;22.21;64.61;101876.66;5124551;27;20490;-81
2023/05/12 10:29:10;;;;;;;0.13;0.13;;;;;;;22.32;64.03;101869.81;5128801;27;20482;-81
2023/05/12 10:31:37;;;;;;;0.20;0.20;;;;;;;22.39;64.25;101873.97;5119189;27;20020;-81
2023/05/12 10:34:05;;;;;;;0.10;0.10;;;;;;;22.48;63.99;101878.88;5123893;27;20023;-81
2023/05/12 10:36:41;;;;;;;0.10;0.10;;;;;;;22.62;64.80;101878.13;5127363;27;20031;-81
2023/05/12 10:39:08;;;;;;;0.30;0.30;;;;;;;22.74;64.05;101876.56;5127525;27;20024;-81
2023/05/12 10:41:35;;;;;;;5.18;0.70;;;;;;;22.72;63.07;101875.81;5131156;27;20035;-81
2023/05/12 10:44:01;;;;;;;0.17;0.17;;;;;;;22.65;63.06;101875.25;5130706;27;20028;-81
2023/05/12 10:46:28;;;;;;;0.30;0.30;;;;;;;22.56;62.74;101881.16;5132062;27;20084;-81
2023/05/12 10:51:48;;;;;;;0.10;0.10;;;;;;;22.57;63.37;101872.97;5114339;27;20376;-80
2023/05/12 10:54:24;;;;;;;0.00;0.00;;;;;;;22.62;63.46;101876.28;5112013;28;20027;-81
2023/05/12 10:56:51;;;;;;;0.32;0.25;;;;;;;22.61;61.44;101877.25;5100609;28;20089;-81
2023/05/12 10:59:22;;;;;;;0.98;0.93;;;;;;;22.71;62.30;101879.47;5106523;28;20081;-81
2023/05/12 11:02:11;;;;;;;0.10;0.10;;;;;;;22.86;60.30;101878.59;5082022;28;20028;-81
2023/05/12 11:04:44;;;;;;;0.30;0.30;;;;;;;22.98;60.91;101878.88;5090103;28;20274;-81
2023/05/12 11:07:12;;;;;;;0.10;0.10;;;;;;;23.14;61.96;101879.75;5087829;28;20024;-82
2023/05/12 11:09:41;;;;;;;0.28;0.28;;;;;;;23.26;60.44;101881.81;5086472;28;20149;-81
2023/05/12 11:12:08;;;;;;;0.30;0.30;;;;;;;23.27;58.92;101872.72;5086023;28;20037;-81
2023/05/12 11:14:36;;;;;;;0.05;0.05;;;;;;;23.29;59.02;101879.88;5090983;28;20032;-82
2023/05/12 11:17:02;;;;;;;0.17;0.17;;;;;;;23.30;58.57;101887.03;5084110;28;20103;-81
2023/05/12 11:19:29;;;;;;;0.00;0.00;;;;;;;23.27;60.39;101883.53;5087011;28;20029;-81
2023/05/12 11:21:56;;;;;;;0.10;0.10;;;;;;;23.23;59.47;101886.50;5109565;28;20019;-81
2023/05/12 11:24:22;;;;;;;0.00;0.00;;;;;;;23.20;60.31;101898.38;5091871;28;20028;-80
2023/05/12 11:26:51;;;;;;;0.30;0.30;;;;;;;23.17;58.72;101882.31;5100866;28;20023;-81